Hovedside
METAR-TAF:

METAR-TAF

Lufthavner :

Ilorin, Nigeria

breddegrad: 08-29N, lengdegrad: 004-35E, høyde over havet: 308 m

METAR: fraværende

Tid: 22:41 (21:41 UTC)

Varsel

Denne rapporten ble laget for 1 minutter siden, klokken 21:40 UTC
Varsel gyldig fra 24. klokken 00 UTC til 25. klokken 06 UTC
Vind 10 kt fra Sør-sørøst
Sikt 10 km eller mer
Få skyer i en høyde av 1000 ft
Få skyer i en høyde av 2000 ft, Bygeskyer.
torden
Midlertidig
fra 24. klokken 01 UTC til 24. klokken 07 UTC
Vind 14 kt fra Øst-nordøst med vindkast opp mot 25 kt
Sikt: 5000 m
Brutte skyer i en høyde av 800 ft
Få skyer i en høyde av 1800 ft, Bygeskyer.
torden, regn
Blir
fra 24. klokken 10 UTC til 24. klokken 12 UTC
Vind 4 kt fra Sørvest

TAF: DNIL 232140Z 2400/2506 15010KT 9999 TS FEW010 FEW020CB TEMPO 2401/24076 06014G25KT 5000 TSRA BKN008 FEW018CB BECMG 2410/2412 23004KT

Værobservasjoner og værvarsel for over 4000 flyplasser (METAR- og TAF-rapporter).

Tilgjengelige stasjoner er representert av de røde og gule prikkene på kartet.

Hold musepekeren over prikken for å se navnet på stasjonen.

Klikk så for å se værobservasjoner og -varsler.

For å forandre kartet kan du klikke på den grønne knappen med svart kryss for å zoome inn, på den grønne knappen med strek for å zoome ut, eller på de grønne pilene for å se tilstøtende kart.


METAR-TAF: